Aeroporto :
LOGIN :

Iscrizione | Disclaimer

   EN    FR    IT 

 










Sommario :    VFR   VFR Marginale   IFR   IFR Intensivo   IFR Molto Intensivo
Visibilità : 
Base nubi : 
>= 8 km
>= 3000ft
5 / 8 km
1000 / 3000 ft
1500m / 5 km
500 / 1000 ft
800 / 1500m
200 / 500 ft
< 800m
< 200 ft
Simboli :   Temporali  Nebbia  Neve Forte  Precipitazioni Forti  Vento > 20 kt
SIGMETs :   Varie  Temporali  Ghiacco  Turbolenza  Onda orograficha  Ceneri Vulcaniche






- Altitudine del aeroporto : 505 ft
- Codice IATA : SXB


LFST - Strasbourg

ULTIMO METAR :
  • 070130Z AUTO 20011KT 9999 -RADZ BKN025 OVC031 08/07 Q1015

METARs OBSOLETI :
  • 070100Z AUTO 21015KT 9999 -RA OVC029 09/07 Q1014 TEMPO 22015G25KT
  • 070030Z AUTO 21014KT 9999 BKN034 OVC042 09/07 Q1014 TEMPO 22015G25KT
  • 070000Z AUTO 21016KT 9999 -RA BKN040/// BKN050/// OVC070/// ///TCU 09/06 Q1014 TEMPO 22015G25KT BECMG BKN035
  • 062330Z AUTO 22020KT 9999 -RA BKN042/// BKN060/// BKN070/// ///TCU 10/06 Q1014 TEMPO 4000 -RA BECMG OVC040
  • 062300Z AUTO 21017KT 9999 SCT038 BKN070 BKN090 09/06 Q1014 TEMPO 4000 -RA

TAF AMD TAF LFST
Valido dal 07 a 00 ore il 08 a 00 ore UTC


062333Z 0700/0724 20012KT 9999 BKN035
TEMPO 0700/0706 -RA
TEMPO 0700/0704 22015G25KT
PROB40 0713/0719 26006KT



MetMap, La meteo Aeronautica in un colpo d'occhio ! - Copyright ORBIFLY Dicembre 2007 - Disclaimer

ORBIFLY MET'MAP TEAM :

Programmazione e sviluppo : Alexandra Zaïnal
Concezione : Baudouin d'Aumeries
Aiuto per la programmazione : Marc-Olivier Méhu
Supporto tecnico e logistico : Manuel Goepfert
Aiuto per la traduzione : Arnaldo La Scala

Contatto : metmap@orbifly.com




FONTI E CREDITI :

   NOAA